Time;durP1;ratioP1;P1;durP2;ratioP2;P2;SDS_P1;SDS_P2;PMS_P1;PMS_P2;Temp;Humidity;BMP_temperature;BMP_pressure;BME280_temperature;BME280_humidity;BME280_pressure;Samples;Min_cycle;Max_cycle;Signal;HPM_P1;HPM_P2
2022/12/10 00:01:15;;;;;;;1.23;0.68;;;;;;;;;;4997329;28;20046;-63
2022/12/10 00:03:41;;;;;;;2.22;0.70;;;;;;;;;;4982641;28;20128;-64
2022/12/10 00:06:11;;;;;;;0.40;0.40;;;;;;;;;;4996842;28;20058;-62
2022/12/10 00:08:37;;;;;;;1.63;0.70;;;;;;;;;;4997029;28;20041;-64
2022/12/10 00:11:05;;;;;;;0.80;0.40;;;;;;;;;;4985108;28;20058;-63
2022/12/10 00:13:32;;;;;;;2.05;0.73;;;;;;;;;;4985460;28;20049;-64
2022/12/10 00:16:06;;;;;;;1.67;0.60;;;;;;;;;;4992790;28;20046;-62
2022/12/10 00:18:34;;;;;;;0.75;0.60;;;;;;;;;;4996619;28;20050;-63
2022/12/10 00:21:04;;;;;;;2.58;0.50;;;;;;;;;;5000272;28;20046;-63
2022/12/10 00:23:32;;;;;;;0.52;0.43;;;;;;;;;;4999639;28;20566;-63
2022/12/10 00:26:18;;;;;;;0.52;0.40;;;;;;;;;;4973906;28;20057;-63
2022/12/10 00:28:46;;;;;;;1.42;0.63;;;;;;;;;;4997955;28;20073;-62
2022/12/10 00:31:18;;;;;;;1.75;0.80;;;;;;;;;;4999998;28;20807;-63
2022/12/10 00:33:45;;;;;;;1.13;0.50;;;;;;;;;;4999004;28;20088;-62
2022/12/10 00:36:25;;;;;;;1.30;0.70;;;;;;;;;;4996630;28;21115;-63
2022/12/10 00:38:51;;;;;;;1.17;0.50;;;;;;;;;;5005572;28;20049;-64
2022/12/10 00:41:18;;;;;;;2.05;0.80;;;;;;;;;;5002326;28;20042;-63
2022/12/10 00:43:44;;;;;;;1.17;0.60;;;;;;;;;;5005162;28;20053;-61
2022/12/10 00:46:12;;;;;;;1.20;0.70;;;;;;;;;;4997946;28;20061;-63
2022/12/10 00:48:39;;;;;;;0.98;0.70;;;;;;;;;;5004693;28;20049;-62
2022/12/10 00:51:11;;;;;;;0.85;0.60;;;;;;;;;;5001794;28;20065;-69
2022/12/10 00:53:38;;;;;;;0.75;0.60;;;;;;;;;;4996677;28;20073;-64
2022/12/10 00:56:05;;;;;;;0.90;0.63;;;;;;;;;;5001145;28;20077;-65
2022/12/10 00:58:33;;;;;;;0.75;0.55;;;;;;;;;;4998717;28;20037;-64
2022/12/10 01:01:11;;;;;;;0.98;0.65;;;;;;;;;;4999859;28;20211;-64
2022/12/10 01:03:38;;;;;;;1.08;0.50;;;;;;;;;;5000504;28;20041;-63
2022/12/10 01:06:12;;;;;;;2.45;0.73;;;;;;;;;;4997032;28;20842;-63
2022/12/10 01:08:38;;;;;;;1.15;0.60;;;;;;;;;;4994648;28;20050;-64
2022/12/10 01:11:05;;;;;;;1.08;0.70;;;;;;;;;;4994488;28;20050;-63
2022/12/10 01:13:30;;;;;;;1.55;0.70;;;;;;;;;;5002106;28;20103;-70
2022/12/10 01:15:56;;;;;;;0.50;0.50;;;;;;;;;;4979793;28;20054;-64
2022/12/10 01:18:22;;;;;;;0.88;0.60;;;;;;;;;;5001742;28;20509;-63
2022/12/10 01:20:48;;;;;;;0.98;0.45;;;;;;;;;;5002678;28;20053;-64
2022/12/10 01:23:14;;;;;;;1.02;0.63;;;;;;;;;;4994361;28;20045;-66
2022/12/10 01:25:40;;;;;;;4.15;0.80;;;;;;;;;;4982016;28;20050;-67
2022/12/10 01:28:06;;;;;;;2.58;0.50;;;;;;;;;;4999443;28;20192;-62
2022/12/10 01:30:32;;;;;;;0.88;0.63;;;;;;;;;;4997030;28;20099;-62
2022/12/10 01:32:58;;;;;;;3.10;0.70;;;;;;;;;;5001412;28;20407;-63
2022/12/10 01:35:24;;;;;;;1.63;0.50;;;;;;;;;;4993486;28;20046;-61
2022/12/10 01:37:50;;;;;;;1.08;0.60;;;;;;;;;;5001315;28;21180;-63
2022/12/10 01:40:16;;;;;;;1.50;0.80;;;;;;;;;;4994469;28;20509;-64
2022/12/10 01:42:42;;;;;;;0.90;0.50;;;;;;;;;;4979019;28;20058;-63
2022/12/10 01:45:11;;;;;;;0.50;0.50;;;;;;;;;;4993046;28;20049;-63
2022/12/10 01:47:37;;;;;;;1.52;0.80;;;;;;;;;;4998765;28;20423;-59
2022/12/10 01:50:06;;;;;;;0.50;0.50;;;;;;;;;;4996230;28;20655;-61
2022/12/10 01:52:32;;;;;;;3.22;0.50;;;;;;;;;;5001571;28;20042;-63
2022/12/10 01:54:58;;;;;;;1.48;0.80;;;;;;;;;;4999650;28;20060;-60
2022/12/10 01:57:27;;;;;;;0.82;0.70;;;;;;;;;;4993441;28;20042;-62
2022/12/10 01:59:59;;;;;;;1.65;0.50;;;;;;;;;;4995063;28;20042;-60
2022/12/10 02:02:45;;;;;;;0.55;0.55;;;;;;;;;;4996741;28;20064;-61
2022/12/10 02:05:25;;;;;;;0.70;0.65;;;;;;;;;;4999379;28;20058;-61
2022/12/10 02:08:02;;;;;;;2.28;0.68;;;;;;;;;;4995818;28;20046;-62
2022/12/10 02:10:43;;;;;;;1.08;0.70;;;;;;;;;;5010058;28;20054;-65
2022/12/10 02:13:21;;;;;;;0.60;0.60;;;;;;;;;;5003857;28;20100;-59
2022/12/10 02:16:12;;;;;;;2.45;0.80;;;;;;;;;;5000886;28;20046;-61
2022/12/10 02:18:46;;;;;;;0.50;0.50;;;;;;;;;;5001570;28;20046;-59
2022/12/10 02:21:26;;;;;;;0.80;0.70;;;;;;;;;;4985325;28;20049;-60
2022/12/10 02:23:57;;;;;;;2.30;0.50;;;;;;;;;;4999603;28;20041;-60
2022/12/10 02:26:32;;;;;;;1.08;0.70;;;;;;;;;;4995526;28;22080;-61
2022/12/10 02:29:16;;;;;;;0.90;0.70;;;;;;;;;;4998932;28;20450;-61
2022/12/10 02:31:47;;;;;;;1.88;0.90;;;;;;;;;;4995270;28;20061;-65
2022/12/10 02:34:14;;;;;;;0.77;0.70;;;;;;;;;;4998924;28;20052;-66
2022/12/10 02:36:45;;;;;;;0.90;0.73;;;;;;;;;;5004903;28;20057;-64
2022/12/10 02:39:16;;;;;;;0.82;0.82;;;;;;;;;;4999405;28;20050;-60
2022/12/10 02:41:47;;;;;;;1.80;0.80;;;;;;;;;;5004879;28;20054;-65
2022/12/10 02:44:17;;;;;;;0.55;0.52;;;;;;;;;;4994625;28;20081;-60
2022/12/10 02:46:45;;;;;;;0.80;0.80;;;;;;;;;;5003707;28;20058;-59
2022/12/10 02:49:14;;;;;;;0.50;0.50;;;;;;;;;;5004399;28;20044;-60
2022/12/10 02:51:41;;;;;;;0.93;0.70;;;;;;;;;;5001392;28;20057;-62
2022/12/10 02:54:42;;;;;;;0.50;0.50;;;;;;;;;;4998632;28;20048;-59
2022/12/10 02:57:33;;;;;;;0.70;0.70;;;;;;;;;;4993110;28;21568;-59
2022/12/10 03:00:20;;;;;;;3.30;0.70;;;;;;;;;;5000070;28;20046;-61
2022/12/10 03:03:25;;;;;;;0.57;0.57;;;;;;;;;;5000046;28;20050;-60
2022/12/10 03:06:02;;;;;;;1.87;0.67;;;;;;;;;;5003043;28;20065;-60
2022/12/10 03:08:38;;;;;;;0.73;0.60;;;;;;;;;;4997749;28;20119;-64
2022/12/10 03:11:09;;;;;;;1.90;0.60;;;;;;;;;;5004232;28;20084;-61
2022/12/10 03:14:14;;;;;;;2.65;0.70;;;;;;;;;;4997526;28;20531;-60
2022/12/10 03:16:47;;;;;;;1.25;0.68;;;;;;;;;;4995722;28;20507;-61
2022/12/10 03:19:17;;;;;;;0.82;0.60;;;;;;;;;;5006322;28;20057;-61
2022/12/10 03:21:46;;;;;;;1.85;0.65;;;;;;;;;;5000967;28;20046;-60
2022/12/10 03:24:15;;;;;;;0.82;0.40;;;;;;;;;;5002980;28;20054;-62
2022/12/10 03:26:42;;;;;;;0.80;0.60;;;;;;;;;;4999934;28;20462;-60
2022/12/10 03:29:14;;;;;;;0.50;0.50;;;;;;;;;;4997239;28;20480;-60
2022/12/10 03:31:41;;;;;;;0.85;0.60;;;;;;;;;;4999879;28;20057;-60
2022/12/10 03:34:09;;;;;;;0.90;0.65;;;;;;;;;;4981550;28;20653;-60
2022/12/10 03:36:37;;;;;;;0.68;0.55;;;;;;;;;;4972323;28;20059;-61
2022/12/10 03:39:04;;;;;;;0.50;0.50;;;;;;;;;;4999378;28;20065;-61
2022/12/10 03:41:31;;;;;;;1.65;0.73;;;;;;;;;;4997321;28;20054;-62
2022/12/10 03:43:59;;;;;;;1.35;0.80;;;;;;;;;;5001656;28;20552;-59
2022/12/10 03:46:27;;;;;;;1.67;0.70;;;;;;;;;;4996251;28;20114;-60
2022/12/10 03:48:54;;;;;;;0.70;0.70;;;;;;;;;;5000632;28;20049;-60
2022/12/10 03:51:21;;;;;;;0.70;0.70;;;;;;;;;;4999930;28;20125;-59
2022/12/10 03:53:50;;;;;;;0.70;0.70;;;;;;;;;;4998779;28;20122;-60
2022/12/10 03:56:18;;;;;;;3.78;0.80;;;;;;;;;;5005776;28;20050;-60
2022/12/10 03:58:44;;;;;;;0.80;0.70;;;;;;;;;;5003421;28;20054;-65
2022/12/10 04:01:10;;;;;;;0.70;0.70;;;;;;;;;;4999753;28;20690;-61
2022/12/10 04:03:38;;;;;;;0.98;0.70;;;;;;;;;;5004420;28;20420;-64
2022/12/10 04:06:07;;;;;;;0.50;0.50;;;;;;;;;;5000077;28;20046;-58
2022/12/10 04:08:33;;;;;;;1.17;0.80;;;;;;;;;;5001633;28;20049;-59
2022/12/10 04:11:08;;;;;;;2.13;0.85;;;;;;;;;;5004140;28;20065;-60
2022/12/10 04:16:27;;;;;;;1.55;0.80;;;;;;;;;;4997164;28;20046;-59
2022/12/10 04:18:56;;;;;;;0.70;0.68;;;;;;;;;;4999803;28;20052;-59
2022/12/10 04:26:52;;;;;;;1.42;0.73;;;;;;;;;;5000397;28;19932;-61
2022/12/10 04:29:23;;;;;;;0.73;0.65;;;;;;;;;;5000813;28;20050;-58
2022/12/10 04:31:49;;;;;;;0.68;0.60;;;;;;;;;;5002655;28;20604;-59
2022/12/10 04:34:16;;;;;;;0.60;0.60;;;;;;;;;;4995255;28;20053;-59
2022/12/10 04:36:41;;;;;;;2.40;0.80;;;;;;;;;;5001527;28;20058;-58
2022/12/10 04:39:08;;;;;;;0.75;0.70;;;;;;;;;;5002612;28;20072;-60
2022/12/10 04:41:33;;;;;;;1.15;0.70;;;;;;;;;;4997245;28;20468;-63
2022/12/10 04:44:00;;;;;;;0.60;0.60;;;;;;;;;;4999632;28;21691;-61
2022/12/10 04:46:27;;;;;;;2.28;0.63;;;;;;;;;;4997930;28;20057;-59
2022/12/10 04:48:53;;;;;;;2.50;1.00;;;;;;;;;;4996831;28;20054;-59
2022/12/10 04:51:19;;;;;;;0.73;0.60;;;;;;;;;;4998197;28;20038;-59
2022/12/10 04:53:45;;;;;;;4.90;0.75;;;;;;;;;;5002325;28;20058;-61
2022/12/10 04:56:10;;;;;;;0.70;0.70;;;;;;;;;;5001544;28;20038;-60
2022/12/10 04:58:37;;;;;;;2.55;0.90;;;;;;;;;;5002651;28;20045;-64
2022/12/10 05:01:04;;;;;;;0.73;0.60;;;;;;;;;;5001438;28;20053;-58
2022/12/10 05:03:31;;;;;;;0.98;0.57;;;;;;;;;;5000975;28;20042;-60
2022/12/10 05:06:04;;;;;;;1.30;0.73;;;;;;;;;;5001593;28;20048;-59
2022/12/10 05:08:30;;;;;;;0.93;0.70;;;;;;;;;;4996805;28;20046;-61
2022/12/10 05:11:03;;;;;;;2.70;0.90;;;;;;;;;;4996773;28;20050;-60
2022/12/10 05:13:30;;;;;;;1.50;0.80;;;;;;;;;;4999790;28;20045;-59
2022/12/10 05:15:56;;;;;;;3.20;0.90;;;;;;;;;;4998833;28;20046;-60
2022/12/10 05:18:22;;;;;;;0.70;0.70;;;;;;;;;;5000207;28;20104;-59
2022/12/10 05:20:48;;;;;;;0.68;0.65;;;;;;;;;;4997900;28;20049;-59
2022/12/10 05:23:29;;;;;;;1.10;0.80;;;;;;;;;;4994767;28;20061;-59
2022/12/10 05:26:22;;;;;;;3.17;0.90;;;;;;;;;;4994691;28;20053;-61
2022/12/10 05:28:52;;;;;;;1.33;0.93;;;;;;;;;;4990798;28;20131;-62
2022/12/10 05:31:27;;;;;;;4.18;0.88;;;;;;;;;;4994557;28;20050;-61
2022/12/10 05:33:54;;;;;;;1.75;0.95;;;;;;;;;;4999574;28;20046;-59
2022/12/10 05:36:23;;;;;;;3.10;0.95;;;;;;;;;;4978120;28;20137;-59
2022/12/10 05:38:50;;;;;;;1.95;1.02;;;;;;;;;;4999335;28;20046;-60
2022/12/10 05:41:20;;;;;;;1.63;1.05;;;;;;;;;;5007757;28;20110;-60
2022/12/10 05:43:46;;;;;;;2.35;1.30;;;;;;;;;;5006017;28;20061;-58
2022/12/10 05:46:16;;;;;;;1.88;1.00;;;;;;;;;;5003678;28;20513;-60
2022/12/10 05:48:42;;;;;;;3.45;1.00;;;;;;;;;;5007980;28;20049;-61
2022/12/10 05:51:10;;;;;;;4.88;1.15;;;;;;;;;;5000678;28;20076;-59
2022/12/10 05:53:37;;;;;;;2.30;1.23;;;;;;;;;;5003709;28;20048;-63
2022/12/10 05:56:09;;;;;;;2.55;1.50;;;;;;;;;;5004264;28;20783;-62
2022/12/10 05:58:37;;;;;;;5.95;1.95;;;;;;;;;;4986995;28;20050;-63
2022/12/10 06:01:14;;;;;;;1.92;1.40;;;;;;;;;;5006955;28;20048;-60
2022/12/10 06:03:40;;;;;;;2.10;1.50;;;;;;;;;;5000080;28;20056;-59
2022/12/10 06:06:06;;;;;;;3.42;1.92;;;;;;;;;;5000836;28;20514;-64
2022/12/10 06:08:34;;;;;;;4.72;1.90;;;;;;;;;;4997540;28;20573;-59
2022/12/10 06:11:08;;;;;;;4.72;2.00;;;;;;;;;;4998574;28;20050;-61
2022/12/10 06:13:35;;;;;;;2.13;1.50;;;;;;;;;;4999427;28;20041;-60
2022/12/10 06:16:10;;;;;;;8.15;1.67;;;;;;;;;;4999765;28;20061;-62
2022/12/10 06:18:37;;;;;;;3.97;1.65;;;;;;;;;;5002321;28;20132;-60
2022/12/10 06:21:04;;;;;;;4.85;1.50;;;;;;;;;;5004774;28;20042;-58
2022/12/10 06:23:30;;;;;;;2.65;1.52;;;;;;;;;;4999146;28;20054;-60
2022/12/10 06:25:56;;;;;;;4.18;1.60;;;;;;;;;;4997530;28;20049;-61
2022/12/10 06:28:22;;;;;;;2.88;1.80;;;;;;;;;;5005291;28;20050;-61
2022/12/10 06:30:48;;;;;;;2.00;1.40;;;;;;;;;;4998295;28;20046;-62
2022/12/10 06:33:14;;;;;;;2.83;1.40;;;;;;;;;;4999152;28;20173;-59
2022/12/10 06:35:40;;;;;;;3.90;1.70;;;;;;;;;;5004686;28;20133;-62
2022/12/10 06:38:06;;;;;;;3.90;1.83;;;;;;;;;;4999150;28;20790;-61
2022/12/10 06:40:32;;;;;;;2.03;1.58;;;;;;;;;;5003964;28;20041;-61
2022/12/10 06:42:58;;;;;;;5.28;1.73;;;;;;;;;;5001433;28;20056;-62
2022/12/10 06:45:23;;;;;;;2.28;1.02;;;;;;;;;;5000801;28;20049;-62
2022/12/10 06:47:49;;;;;;;3.85;1.50;;;;;;;;;;4982216;28;20050;-64
2022/12/10 06:50:15;;;;;;;3.22;1.40;;;;;;;;;;4999027;28;20076;-60
2022/12/10 06:52:41;;;;;;;1.77;1.40;;;;;;;;;;4998059;28;20052;-62
2022/12/10 06:55:07;;;;;;;1.30;1.10;;;;;;;;;;5002688;28;20389;-60
2022/12/10 06:57:33;;;;;;;3.35;1.42;;;;;;;;;;5004642;28;20053;-60
2022/12/10 07:00:00;;;;;;;3.60;1.35;;;;;;;;;;5001257;28;20046;-60
2022/12/10 07:02:26;;;;;;;2.40;1.52;;;;;;;;;;5006536;28;20512;-62
2022/12/10 07:04:51;;;;;;;1.83;1.50;;;;;;;;;;4998035;28;20054;-61
2022/12/10 07:07:18;;;;;;;3.83;1.58;;;;;;;;;;5000874;28;21104;-61
2022/12/10 07:09:43;;;;;;;2.58;1.65;;;;;;;;;;5002319;28;20058;-57
2022/12/10 07:12:09;;;;;;;8.70;1.48;;;;;;;;;;4997749;28;20080;-59
2022/12/10 07:14:35;;;;;;;6.85;2.42;;;;;;;;;;4993573;28;20050;-67
2022/12/10 07:17:05;;;;;;;3.75;1.70;;;;;;;;;;4996464;28;20042;-61
2022/12/10 07:19:30;;;;;;;4.72;1.60;;;;;;;;;;5001514;28;20116;-64
2022/12/10 07:21:56;;;;;;;4.10;1.50;;;;;;;;;;4996906;28;20670;-59
2022/12/10 07:24:22;;;;;;;5.10;1.40;;;;;;;;;;4998174;28;20044;-63
2022/12/10 07:26:48;;;;;;;2.92;1.63;;;;;;;;;;4994228;28;20057;-60
2022/12/10 07:29:17;;;;;;;2.95;1.60;;;;;;;;;;4998333;28;20148;-63
2022/12/10 07:31:44;;;;;;;3.15;1.70;;;;;;;;;;4995323;28;20058;-63
2022/12/10 07:34:11;;;;;;;6.90;1.75;;;;;;;;;;4997662;28;20057;-62
2022/12/10 07:36:38;;;;;;;2.88;1.83;;;;;;;;;;4996886;28;20090;-59
2022/12/10 07:39:08;;;;;;;4.30;1.98;;;;;;;;;;4997927;28;20429;-61
2022/12/10 07:41:35;;;;;;;4.95;1.90;;;;;;;;;;4997818;28;20836;-62
2022/12/10 07:44:03;;;;;;;4.30;2.05;;;;;;;;;;4995026;28;20515;-64
2022/12/10 07:46:31;;;;;;;2.80;1.60;;;;;;;;;;4976640;28;20053;-62
2022/12/10 07:49:00;;;;;;;4.00;1.98;;;;;;;;;;4996869;28;20572;-62
2022/12/10 07:51:26;;;;;;;7.50;2.30;;;;;;;;;;5001773;28;20120;-60
2022/12/10 07:53:54;;;;;;;6.10;2.40;;;;;;;;;;5000006;28;20041;-61
2022/12/10 07:56:22;;;;;;;6.05;2.40;;;;;;;;;;4995309;28;20081;-63
2022/12/10 07:58:49;;;;;;;6.13;2.35;;;;;;;;;;4999700;28;20600;-60
2022/12/10 08:01:19;;;;;;;5.55;1.73;;;;;;;;;;4997582;28;20050;-64
2022/12/10 08:03:45;;;;;;;3.85;1.80;;;;;;;;;;4977967;28;20141;-60
2022/12/10 08:06:14;;;;;;;3.75;1.67;;;;;;;;;;4996941;28;20061;-63
2022/12/10 08:08:41;;;;;;;5.28;1.73;;;;;;;;;;4997388;28;20108;-60
2022/12/10 08:11:08;;;;;;;4.00;1.52;;;;;;;;;;5002304;28;20112;-61
2022/12/10 08:13:34;;;;;;;2.13;1.00;;;;;;;;;;5002035;28;20056;-62
2022/12/10 08:16:15;;;;;;;2.75;1.20;;;;;;;;;;4995669;28;20038;-62
2022/12/10 08:18:42;;;;;;;2.22;1.35;;;;;;;;;;4997591;28;20050;-61
2022/12/10 08:21:11;;;;;;;5.95;1.40;;;;;;;;;;4999139;28;20583;-62
2022/12/10 08:23:37;;;;;;;4.47;1.73;;;;;;;;;;5001437;28;20141;-61
2022/12/10 08:26:05;;;;;;;2.35;1.40;;;;;;;;;;4994104;28;20068;-62
2022/12/10 08:28:32;;;;;;;3.15;1.67;;;;;;;;;;4993198;28;20479;-66
2022/12/10 08:30:58;;;;;;;4.70;1.50;;;;;;;;;;4997493;28;20112;-64
2022/12/10 08:33:24;;;;;;;4.35;1.60;;;;;;;;;;4977262;28;20050;-64
2022/12/10 08:35:51;;;;;;;2.28;1.80;;;;;;;;;;4994586;28;20073;-62
2022/12/10 08:38:17;;;;;;;1.60;1.30;;;;;;;;;;4997005;28;20046;-60
2022/12/10 08:40:44;;;;;;;2.33;1.52;;;;;;;;;;4994152;28;20064;-61
2022/12/10 08:43:09;;;;;;;5.20;2.63;;;;;;;;;;4995906;28;20589;-60
2022/12/10 08:45:35;;;;;;;4.25;1.83;;;;;;;;;;4996196;28;20101;-62
2022/12/10 08:48:02;;;;;;;2.05;1.40;;;;;;;;;;4998605;28;20376;-62
2022/12/10 08:50:28;;;;;;;5.35;1.50;;;;;;;;;;4996937;28;20611;-64
2022/12/10 08:52:54;;;;;;;3.42;1.30;;;;;;;;;;4974963;28;20050;-62
2022/12/10 08:55:20;;;;;;;2.20;1.30;;;;;;;;;;4975548;28;20455;-62
2022/12/10 08:57:46;;;;;;;3.85;1.20;;;;;;;;;;4993411;28;20516;-65
2022/12/10 09:00:13;;;;;;;2.63;1.10;;;;;;;;;;4980031;28;20567;-65
2022/12/10 09:02:39;;;;;;;2.10;1.30;;;;;;;;;;4997670;28;20042;-63
2022/12/10 09:05:06;;;;;;;2.63;1.20;;;;;;;;;;4993917;28;20863;-63
2022/12/10 09:07:32;;;;;;;4.15;1.40;;;;;;;;;;4994382;28;20049;-64
2022/12/10 09:09:58;;;;;;;2.45;1.33;;;;;;;;;;4997869;28;20072;-60
2022/12/10 09:12:24;;;;;;;5.68;1.67;;;;;;;;;;4995117;28;20502;-61
2022/12/10 09:14:50;;;;;;;9.85;2.95;;;;;;;;;;5000239;28;20409;-64
2022/12/10 09:17:16;;;;;;;3.72;1.20;;;;;;;;;;4976767;28;20050;-64
2022/12/10 09:19:42;;;;;;;3.65;1.73;;;;;;;;;;4995165;28;20069;-63
2022/12/10 09:22:08;;;;;;;8.60;1.95;;;;;;;;;;4996973;28;20064;-70
2022/12/10 09:24:34;;;;;;;4.32;1.60;;;;;;;;;;5005789;28;20091;-64
2022/12/10 09:27:01;;;;;;;2.83;1.60;;;;;;;;;;4996578;28;20053;-61
2022/12/10 09:29:27;;;;;;;3.20;1.65;;;;;;;;;;4998035;28;20068;-65
2022/12/10 09:31:53;;;;;;;2.58;1.52;;;;;;;;;;4998687;28;20058;-64
2022/12/10 09:34:19;;;;;;;3.10;1.77;;;;;;;;;;4992274;28;20050;-63
2022/12/10 09:36:45;;;;;;;2.42;1.42;;;;;;;;;;5000777;28;20420;-63
2022/12/10 09:39:11;;;;;;;4.00;1.70;;;;;;;;;;5001884;28;20050;-61
2022/12/10 09:42:14;;;;;;;9.80;1.63;;;;;;;;;;4993939;28;20045;-62
2022/12/10 09:44:59;;;;;;;4.43;1.48;;;;;;;;;;4999845;28;20054;-61
2022/12/10 09:47:34;;;;;;;4.05;1.70;;;;;;;;;;4997414;28;20428;-60
2022/12/10 09:50:36;;;;;;;4.60;1.85;;;;;;;;;;4991545;28;20057;-61
2022/12/10 09:53:03;;;;;;;3.88;1.77;;;;;;;;;;4998569;28;20920;-61
2022/12/10 09:55:37;;;;;;;4.00;1.65;;;;;;;;;;5001519;28;20049;-62
2022/12/10 09:58:05;;;;;;;4.78;1.85;;;;;;;;;;5002261;28;20046;-62
2022/12/10 10:00:41;;;;;;;3.38;1.83;;;;;;;;;;4996180;28;20464;-60
2022/12/10 10:03:12;;;;;;;2.42;1.80;;;;;;;;;;5000746;28;20045;-65
2022/12/10 10:05:45;;;;;;;3.80;1.80;;;;;;;;;;4974898;28;20058;-61
2022/12/10 10:08:31;;;;;;;5.00;2.50;;;;;;;;;;5001344;28;20056;-62
2022/12/10 10:10:59;;;;;;;6.20;2.17;;;;;;;;;;4998101;28;20050;-64
2022/12/10 10:13:38;;;;;;;7.05;2.95;;;;;;;;;;4991644;28;20050;-63
2022/12/10 10:16:38;;;;;;;7.00;2.97;;;;;;;;;;5003675;28;20074;-63
2022/12/10 10:19:11;;;;;;;5.57;2.80;;;;;;;;;;4987912;28;20200;-63
2022/12/10 10:21:43;;;;;;;3.47;2.13;;;;;;;;;;5000228;28;20181;-63
2022/12/10 10:24:18;;;;;;;5.60;2.55;;;;;;;;;;4998128;28;20076;-63
2022/12/10 10:26:45;;;;;;;6.70;2.47;;;;;;;;;;5003951;28;20047;-64
2022/12/10 10:29:13;;;;;;;7.38;2.40;;;;;;;;;;4990954;28;20057;-65
2022/12/10 10:31:42;;;;;;;7.43;2.20;;;;;;;;;;5007435;28;20108;-62
2022/12/10 10:34:19;;;;;;;5.40;1.95;;;;;;;;;;5004983;28;20212;-63
2022/12/10 10:36:47;;;;;;;4.60;2.20;;;;;;;;;;5005145;28;20088;-67
2022/12/10 10:39:27;;;;;;;3.15;1.50;;;;;;;;;;5002564;28;20064;-64
2022/12/10 10:41:56;;;;;;;6.57;1.90;;;;;;;;;;5011103;28;20056;-63
2022/12/10 10:44:26;;;;;;;2.80;1.65;;;;;;;;;;5001173;28;20517;-67
2022/12/10 10:46:54;;;;;;;3.35;1.60;;;;;;;;;;5004410;28;20076;-65
2022/12/10 10:49:27;;;;;;;3.35;1.45;;;;;;;;;;5000262;28;20613;-64
2022/12/10 10:51:59;;;;;;;2.80;1.90;;;;;;;;;;5005131;28;20068;-64
2022/12/10 10:54:37;;;;;;;4.00;1.65;;;;;;;;;;4994686;28;20053;-63
2022/12/10 10:57:17;;;;;;;10.15;2.03;;;;;;;;;;5003537;28;20402;-67
2022/12/10 10:59:43;;;;;;;2.35;1.45;;;;;;;;;;5004963;28;20074;-65
2022/12/10 11:02:17;;;;;;;3.20;1.40;;;;;;;;;;4999038;28;20068;-63
2022/12/10 11:04:52;;;;;;;2.45;1.20;;;;;;;;;;5004942;28;20054;-66
2022/12/10 11:07:26;;;;;;;2.50;1.20;;;;;;;;;;5001046;28;20077;-65
2022/12/10 11:09:54;;;;;;;1.98;1.10;;;;;;;;;;5003243;28;20047;-64
2022/12/10 11:12:36;;;;;;;1.55;1.05;;;;;;;;;;4980994;28;20057;-64
2022/12/10 11:15:34;;;;;;;2.83;1.15;;;;;;;;;;5002217;28;20054;-64
2022/12/10 11:18:02;;;;;;;5.07;1.10;;;;;;;;;;4988062;28;20052;-63
2022/12/10 11:20:32;;;;;;;2.72;1.10;;;;;;;;;;4996792;28;20049;-65
2022/12/10 11:23:01;;;;;;;2.22;1.35;;;;;;;;;;4993787;28;20045;-66
2022/12/10 11:25:45;;;;;;;1.98;1.23;;;;;;;;;;5005561;28;20046;-64
2022/12/10 11:28:56;;;;;;;1.73;1.23;;;;;;;;;;4997429;28;20057;-66
2022/12/10 11:32:07;;;;;;;2.30;1.30;;;;;;;;;;4993932;28;20479;-62
2022/12/10 11:34:54;;;;;;;1.27;1.00;;;;;;;;;;5003259;28;20129;-64
2022/12/10 11:37:53;;;;;;;4.18;1.00;;;;;;;;;;4994935;28;20042;-62
2022/12/10 11:40:46;;;;;;;2.55;1.10;;;;;;;;;;5001862;28;20054;-63
2022/12/10 11:43:29;;;;;;;1.35;1.10;;;;;;;;;;4999006;28;20056;-67
2022/12/10 11:46:07;;;;;;;2.03;1.10;;;;;;;;;;4998961;28;20057;-59
2022/12/10 11:48:55;;;;;;;3.75;1.10;;;;;;;;;;5002154;28;20088;-64
2022/12/10 11:51:34;;;;;;;1.52;1.05;;;;;;;;;;5003120;28;20053;-62
2022/12/10 11:54:18;;;;;;;1.50;1.08;;;;;;;;;;4999126;28;20077;-62
2022/12/10 11:56:49;;;;;;;1.85;1.05;;;;;;;;;;4992017;28;20092;-61
2022/12/10 11:59:20;;;;;;;4.50;0.70;;;;;;;;;;5002569;28;20077;-65
2022/12/10 12:02:07;;;;;;;2.88;0.98;;;;;;;;;;5002347;28;20084;-64
2022/12/10 12:04:42;;;;;;;2.63;1.20;;;;;;;;;;4992873;28;20052;-65
2022/12/10 12:07:17;;;;;;;1.58;1.05;;;;;;;;;;5003606;28;20718;-63
2022/12/10 12:09:52;;;;;;;1.17;0.95;;;;;;;;;;5003783;28;20643;-62
2022/12/10 12:12:42;;;;;;;3.20;1.00;;;;;;;;;;4998361;28;20046;-62
2022/12/10 12:15:26;;;;;;;4.13;1.10;;;;;;;;;;4999530;28;20054;-63
2022/12/10 12:17:58;;;;;;;3.40;1.03;;;;;;;;;;5004262;28;20494;-64
2022/12/10 12:20:55;;;;;;;1.60;1.10;;;;;;;;;;4988806;28;20049;-63
2022/12/10 12:23:44;;;;;;;1.15;1.00;;;;;;;;;;5003487;28;20042;-64
2022/12/10 12:26:33;;;;;;;4.13;0.98;;;;;;;;;;4993494;28;20141;-63
2022/12/10 12:29:24;;;;;;;3.08;1.02;;;;;;;;;;5004786;28;20042;-64
2022/12/10 12:32:08;;;;;;;3.80;1.30;;;;;;;;;;5006521;28;20397;-64
2022/12/10 12:34:52;;;;;;;2.55;1.45;;;;;;;;;;4993163;28;20043;-65
2022/12/10 12:37:21;;;;;;;3.07;1.13;;;;;;;;;;4996955;28;20440;-62
2022/12/10 12:40:27;;;;;;;1.40;1.17;;;;;;;;;;4999437;28;20049;-63
2022/12/10 12:43:03;;;;;;;2.35;1.73;;;;;;;;;;4988210;28;20597;-62
2022/12/10 12:45:43;;;;;;;3.63;1.20;;;;;;;;;;5007861;28;20053;-63
2022/12/10 12:48:15;;;;;;;4.00;1.50;;;;;;;;;;5002480;28;20392;-64
2022/12/10 12:50:43;;;;;;;1.13;0.90;;;;;;;;;;5006039;28;20042;-62
2022/12/10 12:53:21;;;;;;;0.93;0.80;;;;;;;;;;5001179;28;20050;-62
2022/12/10 12:56:09;;;;;;;2.75;1.38;;;;;;;;;;5004443;28;20050;-63
2022/12/10 12:59:00;;;;;;;4.72;1.48;;;;;;;;;;5005858;28;20050;-62
2022/12/10 13:01:58;;;;;;;1.50;1.00;;;;;;;;;;5002627;28;20042;-62
2022/12/10 13:04:25;;;;;;;2.17;0.80;;;;;;;;;;4902234;29;20412;-64
2022/12/10 13:07:27;;;;;;;2.55;1.20;;;;;;;;;;4899184;29;20059;-60
2022/12/10 13:10:05;;;;;;;3.10;1.10;;;;;;;;;;4896850;29;20138;-61
2022/12/10 13:12:45;;;;;;;1.27;0.85;;;;;;;;;;4902465;29;20044;-61
2022/12/10 13:15:17;;;;;;;1.42;0.80;;;;;;;;;;4908243;29;20050;-63
2022/12/10 13:18:12;;;;;;;2.65;1.70;;;;;;;;;;4904674;29;20064;-64
2022/12/10 13:20:46;;;;;;;1.63;1.08;;;;;;;;;;4901510;29;20151;-63
2022/12/10 13:23:24;;;;;;;2.88;1.00;;;;;;;;;;4904365;29;20059;-65
2022/12/10 13:25:50;;;;;;;0.88;0.60;;;;;;;;;;4901823;29;20059;-64
2022/12/10 13:28:24;;;;;;;2.03;1.17;;;;;;;;;;4900712;29;20135;-64
2022/12/10 13:31:15;;;;;;;1.02;0.80;;;;;;;;;;4903004;29;20587;-62
2022/12/10 13:33:52;;;;;;;1.70;0.90;;;;;;;;;;4898690;29;20055;-65
2022/12/10 13:36:24;;;;;;;1.48;0.80;;;;;;;;;;4901561;29;20060;-63
2022/12/10 13:39:02;;;;;;;2.13;1.00;;;;;;;;;;4902052;29;20146;-64
2022/12/10 13:44:35;;;;;;;1.38;0.90;;;;;;;;;;4997369;28;20050;-63
2022/12/10 13:47:10;;;;;;;2.33;0.82;;;;;;;;;;4993400;28;20057;-61
2022/12/10 13:49:49;;;;;;;3.03;0.90;;;;;;;;;;4999637;28;20049;-62
2022/12/10 13:52:26;;;;;;;2.22;1.20;;;;;;;;;;4993440;28;20050;-63
2022/12/10 13:55:08;;;;;;;1.55;1.05;;;;;;;;;;4997789;28;20062;-64
2022/12/10 13:57:49;;;;;;;1.50;1.15;;;;;;;;;;5001004;28;20042;-61
2022/12/10 14:00:58;;;;;;;3.15;1.50;;;;;;;;;;4996440;28;20042;-64
2022/12/10 14:04:14;;;;;;;1.75;1.30;;;;;;;;;;4942789;28;20059;-64
2022/12/10 14:06:42;;;;;;;1.55;0.90;;;;;;;;;;4906218;29;20058;-70
2022/12/10 14:09:20;;;;;;;2.40;1.08;;;;;;;;;;4904757;29;20566;-64
2022/12/10 14:11:54;;;;;;;3.20;1.20;;;;;;;;;;4909454;29;20056;-65
2022/12/10 14:14:33;;;;;;;2.47;0.90;;;;;;;;;;4906180;29;20118;-64
2022/12/10 14:17:02;;;;;;;1.90;0.60;;;;;;;;;;4904776;29;20067;-64
2022/12/10 14:19:28;;;;;;;1.85;0.80;;;;;;;;;;4909846;29;20056;-62
2022/12/10 14:21:55;;;;;;;0.68;0.63;;;;;;;;;;4908189;29;20055;-62
2022/12/10 14:24:36;;;;;;;0.93;0.77;;;;;;;;;;4910205;29;20104;-66
2022/12/10 14:27:17;;;;;;;1.13;0.80;;;;;;;;;;4911127;29;20051;-63
2022/12/10 14:29:49;;;;;;;1.23;0.70;;;;;;;;;;4909882;29;20799;-67
2022/12/10 14:32:23;;;;;;;1.25;0.60;;;;;;;;;;4907721;29;20145;-68
2022/12/10 14:34:55;;;;;;;3.22;1.70;;;;;;;;;;4938112;29;20094;-70
2022/12/10 14:37:28;;;;;;;2.38;1.23;;;;;;;;;;4934282;29;20055;-64
2022/12/10 14:39:55;;;;;;;1.58;1.00;;;;;;;;;;4945662;29;20066;-62
2022/12/10 14:42:22;;;;;;;2.85;1.63;;;;;;;;;;4968004;28;20153;-62
2022/12/10 14:44:56;;;;;;;3.42;1.52;;;;;;;;;;4986395;28;20046;-64
2022/12/10 14:47:22;;;;;;;1.73;0.98;;;;;;;;;;5000562;28;20050;-61
2022/12/10 14:49:50;;;;;;;5.63;1.83;;;;;;;;;;5003940;28;20049;-59
2022/12/10 14:52:26;;;;;;;1.20;0.70;;;;;;;;;;4996737;28;20060;-60
2022/12/10 14:54:52;;;;;;;1.45;1.10;;;;;;;;;;4995988;28;20046;-64
2022/12/10 14:57:24;;;;;;;2.85;1.60;;;;;;;;;;4996561;28;20057;-60
2022/12/10 15:00:08;;;;;;;2.72;1.50;;;;;;;;;;5002658;28;20048;-66
2022/12/10 15:02:37;;;;;;;;;;;;;;;;;;4991216;28;20500;-61
2022/12/10 15:05:10;;;;;;;8.80;3.05;;;;;;;;;;5001942;28;19925;-65
2022/12/10 15:07:37;;;;;;;3.72;1.70;;;;;;;;;;5003788;28;20689;-61
2022/12/10 15:10:12;;;;;;;2.30;1.20;;;;;;;;;;5002114;28;20043;-63
2022/12/10 15:12:44;;;;;;;2.25;1.20;;;;;;;;;;5006627;28;20062;-63
2022/12/10 15:15:32;;;;;;;4.53;1.02;;;;;;;;;;5006877;28;20061;-62
2022/12/10 15:18:07;;;;;;;4.03;1.40;;;;;;;;;;5006444;28;20053;-63
2022/12/10 15:20:47;;;;;;;1.25;0.95;;;;;;;;;;5005147;28;20544;-62
2022/12/10 15:23:28;;;;;;;0.73;0.52;;;;;;;;;;5001199;28;20037;-64
2022/12/10 15:25:56;;;;;;;0.85;0.80;;;;;;;;;;4997695;28;20111;-61